sensor_id;sensor_type;location;lat;lon;timestamp;P1;durP1;ratioP1;P2;durP2;ratioP2
1987;SDS011;12775;46.994;15.498;2023-08-31T00:00:20;1.78;;;1.30;;
1987;SDS011;12775;46.994;15.498;2023-08-31T00:02:47;3.78;;;1.72;;
1987;SDS011;12775;46.994;15.498;2023-08-31T00:05:13;2.60;;;1.68;;
1987;SDS011;12775;46.994;15.498;2023-08-31T00:07:40;3.14;;;1.36;;
1987;SDS011;12775;46.994;15.498;2023-08-31T00:10:06;2.76;;;1.68;;
1987;SDS011;12775;46.994;15.498;2023-08-31T00:12:33;2.24;;;1.82;;
1987;SDS011;12775;46.994;15.498;2023-08-31T00:15:00;1.74;;;1.30;;
1987;SDS011;12775;46.994;15.498;2023-08-31T00:17:27;3.30;;;2.08;;
1987;SDS011;12775;46.994;15.498;2023-08-31T00:19:53;2.82;;;2.10;;
1987;SDS011;12775;46.994;15.498;2023-08-31T00:22:20;2.70;;;1.76;;
1987;SDS011;12775;46.994;15.498;2023-08-31T00:24:46;2.32;;;1.40;;
1987;SDS011;12775;46.994;15.498;2023-08-31T00:27:13;3.90;;;1.92;;
1987;SDS011;12775;46.994;15.498;2023-08-31T00:29:39;1.56;;;1.46;;
1987;SDS011;12775;46.994;15.498;2023-08-31T00:32:06;2.44;;;1.54;;
1987;SDS011;12775;46.994;15.498;2023-08-31T00:34:33;4.96;;;2.02;;
1987;SDS011;12775;46.994;15.498;2023-08-31T00:36:59;3.06;;;2.54;;
1987;SDS011;12775;46.994;15.498;2023-08-31T00:39:26;1.20;;;1.10;;
1987;SDS011;12775;46.994;15.498;2023-08-31T00:41:52;2.82;;;1.76;;
1987;SDS011;12775;46.994;15.498;2023-08-31T00:44:19;2.24;;;2.04;;
1987;SDS011;12775;46.994;15.498;2023-08-31T00:46:46;4.36;;;1.84;;
1987;SDS011;12775;46.994;15.498;2023-08-31T00:49:12;2.30;;;1.62;;
1987;SDS011;12775;46.994;15.498;2023-08-31T00:51:39;1.86;;;1.72;;
1987;SDS011;12775;46.994;15.498;2023-08-31T00:54:05;13.80;;;2.10;;
1987;SDS011;12775;46.994;15.498;2023-08-31T00:56:32;1.64;;;1.52;;
1987;SDS011;12775;46.994;15.498;2023-08-31T00:58:59;1.94;;;1.72;;
1987;SDS011;12775;46.994;15.498;2023-08-31T01:01:28;1.44;;;1.18;;
1987;SDS011;12775;46.994;15.498;2023-08-31T01:03:55;4.20;;;1.58;;
1987;SDS011;12775;46.994;15.498;2023-08-31T01:06:40;1.54;;;1.44;;
1987;SDS011;12775;46.994;15.498;2023-08-31T01:09:06;2.30;;;1.88;;
1987;SDS011;12775;46.994;15.498;2023-08-31T01:11:34;3.12;;;1.32;;
1987;SDS011;12775;46.994;15.498;2023-08-31T01:14:00;1.74;;;1.24;;
1987;SDS011;12775;46.994;15.498;2023-08-31T01:16:24;2.90;;;1.00;;
1987;SDS011;12775;46.994;15.498;2023-08-31T01:18:51;1.14;;;1.08;;
1987;SDS011;12775;46.994;15.498;2023-08-31T01:21:19;4.68;;;1.64;;
1987;SDS011;12775;46.994;15.498;2023-08-31T01:23:53;1.18;;;1.06;;
1987;SDS011;12775;46.994;15.498;2023-08-31T01:26:20;1.86;;;1.60;;
1987;SDS011;12775;46.994;15.498;2023-08-31T01:28:47;1.64;;;1.24;;
1987;SDS011;12775;46.994;15.498;2023-08-31T01:31:13;2.20;;;1.50;;
1987;SDS011;12775;46.994;15.498;2023-08-31T01:33:40;3.70;;;2.12;;
1987;SDS011;12775;46.994;15.498;2023-08-31T01:36:39;2.54;;;1.44;;
1987;SDS011;12775;46.994;15.498;2023-08-31T01:39:02;2.42;;;1.22;;
1987;SDS011;12775;46.994;15.498;2023-08-31T01:41:56;3.30;;;1.96;;
1987;SDS011;12775;46.994;15.498;2023-08-31T01:44:12;3.36;;;1.74;;
1987;SDS011;12775;46.994;15.498;2023-08-31T01:46:39;1.72;;;1.62;;
1987;SDS011;12775;46.994;15.498;2023-08-31T01:49:06;2.60;;;2.04;;
1987;SDS011;12775;46.994;15.498;2023-08-31T01:51:32;6.26;;;1.74;;
1987;SDS011;12775;46.994;15.498;2023-08-31T01:53:59;6.10;;;2.02;;
1987;SDS011;12775;46.994;15.498;2023-08-31T01:56:25;4.58;;;1.60;;
1987;SDS011;12775;46.994;15.498;2023-08-31T01:58:52;3.28;;;1.74;;
1987;SDS011;12775;46.994;15.498;2023-08-31T02:01:18;13.46;;;2.10;;
1987;SDS011;12775;46.994;15.498;2023-08-31T02:03:45;3.32;;;1.82;;
1987;SDS011;12775;46.994;15.498;2023-08-31T02:06:12;1.68;;;1.58;;
1987;SDS011;12775;46.994;15.498;2023-08-31T02:08:38;3.50;;;2.26;;
1987;SDS011;12775;46.994;15.498;2023-08-31T02:11:05;2.26;;;2.06;;
1987;SDS011;12775;46.994;15.498;2023-08-31T02:13:31;2.30;;;1.96;;
1987;SDS011;12775;46.994;15.498;2023-08-31T02:15:58;5.56;;;2.14;;
1987;SDS011;12775;46.994;15.498;2023-08-31T02:18:25;4.40;;;2.08;;
1987;SDS011;12775;46.994;15.498;2023-08-31T02:20:52;5.12;;;2.58;;
1987;SDS011;12775;46.994;15.498;2023-08-31T02:23:18;3.32;;;2.22;;
1987;SDS011;12775;46.994;15.498;2023-08-31T02:25:44;4.90;;;2.60;;
1987;SDS011;12775;46.994;15.498;2023-08-31T02:28:11;2.96;;;1.98;;
1987;SDS011;12775;46.994;15.498;2023-08-31T02:30:38;3.18;;;2.26;;
1987;SDS011;12775;46.994;15.498;2023-08-31T02:33:04;3.38;;;2.38;;
1987;SDS011;12775;46.994;15.498;2023-08-31T02:35:31;4.22;;;2.24;;
1987;SDS011;12775;46.994;15.498;2023-08-31T02:37:57;6.10;;;2.42;;
1987;SDS011;12775;46.994;15.498;2023-08-31T02:40:24;4.72;;;2.30;;
1987;SDS011;12775;46.994;15.498;2023-08-31T02:42:51;1.76;;;1.62;;
1987;SDS011;12775;46.994;15.498;2023-08-31T02:45:17;2.52;;;2.32;;
1987;SDS011;12775;46.994;15.498;2023-08-31T02:47:44;2.44;;;2.20;;
1987;SDS011;12775;46.994;15.498;2023-08-31T02:50:10;3.50;;;2.82;;
1987;SDS011;12775;46.994;15.498;2023-08-31T02:52:37;4.76;;;2.58;;
1987;SDS011;12775;46.994;15.498;2023-08-31T02:55:04;2.64;;;2.42;;
1987;SDS011;12775;46.994;15.498;2023-08-31T02:57:31;2.60;;;2.40;;
1987;SDS011;12775;46.994;15.498;2023-08-31T02:59:57;4.70;;;2.48;;
1987;SDS011;12775;46.994;15.498;2023-08-31T03:02:25;2.46;;;2.26;;
1987;SDS011;12775;46.994;15.498;2023-08-31T03:04:51;3.30;;;2.44;;
1987;SDS011;12775;46.994;15.498;2023-08-31T03:07:18;4.38;;;2.60;;
1987;SDS011;12775;46.994;15.498;2023-08-31T03:09:48;3.20;;;2.90;;
1987;SDS011;12775;46.994;15.498;2023-08-31T03:12:11;3.22;;;2.86;;
1987;SDS011;12775;46.994;15.498;2023-08-31T03:14:38;2.98;;;2.78;;
1987;SDS011;12775;46.994;15.498;2023-08-31T03:17:04;3.36;;;2.36;;
1987;SDS011;12775;46.994;15.498;2023-08-31T03:19:31;2.96;;;2.74;;
1987;SDS011;12775;46.994;15.498;2023-08-31T03:21:57;5.06;;;2.90;;
1987;SDS011;12775;46.994;15.498;2023-08-31T03:24:24;3.04;;;2.74;;
1987;SDS011;12775;46.994;15.498;2023-08-31T03:26:51;4.84;;;3.10;;
1987;SDS011;12775;46.994;15.498;2023-08-31T03:29:17;4.62;;;2.78;;
1987;SDS011;12775;46.994;15.498;2023-08-31T03:31:44;2.80;;;2.54;;
1987;SDS011;12775;46.994;15.498;2023-08-31T03:34:11;2.86;;;2.56;;
1987;SDS011;12775;46.994;15.498;2023-08-31T03:36:38;5.20;;;2.76;;
1987;SDS011;12775;46.994;15.498;2023-08-31T03:39:04;5.48;;;3.12;;
1987;SDS011;12775;46.994;15.498;2023-08-31T03:41:31;3.70;;;3.38;;
1987;SDS011;12775;46.994;15.498;2023-08-31T03:43:59;3.04;;;2.76;;
1987;SDS011;12775;46.994;15.498;2023-08-31T03:46:26;6.26;;;3.24;;
1987;SDS011;12775;46.994;15.498;2023-08-31T03:48:52;6.02;;;3.58;;
1987;SDS011;12775;46.994;15.498;2023-08-31T03:51:19;2.30;;;2.20;;
1987;SDS011;12775;46.994;15.498;2023-08-31T03:53:46;2.68;;;2.48;;
1987;SDS011;12775;46.994;15.498;2023-08-31T03:56:12;2.68;;;2.48;;
1987;SDS011;12775;46.994;15.498;2023-08-31T03:58:39;3.40;;;3.10;;
1987;SDS011;12775;46.994;15.498;2023-08-31T04:01:05;3.80;;;2.52;;
1987;SDS011;12775;46.994;15.498;2023-08-31T04:03:32;3.34;;;3.04;;
1987;SDS011;12775;46.994;15.498;2023-08-31T04:05:58;3.70;;;3.40;;
1987;SDS011;12775;46.994;15.498;2023-08-31T04:08:25;4.26;;;2.66;;
1987;SDS011;12775;46.994;15.498;2023-08-31T04:10:52;7.22;;;2.80;;
1987;SDS011;12775;46.994;15.498;2023-08-31T04:13:18;3.74;;;3.32;;
1987;SDS011;12775;46.994;15.498;2023-08-31T04:15:45;4.20;;;2.92;;
1987;SDS011;12775;46.994;15.498;2023-08-31T04:18:11;3.76;;;2.88;;
1987;SDS011;12775;46.994;15.498;2023-08-31T04:20:38;3.56;;;2.94;;
1987;SDS011;12775;46.994;15.498;2023-08-31T04:23:05;3.84;;;3.18;;
1987;SDS011;12775;46.994;15.498;2023-08-31T04:25:31;4.52;;;3.10;;
1987;SDS011;12775;46.994;15.498;2023-08-31T04:27:58;5.06;;;3.50;;
1987;SDS011;12775;46.994;15.498;2023-08-31T04:30:24;4.08;;;3.50;;
1987;SDS011;12775;46.994;15.498;2023-08-31T04:32:51;6.66;;;3.70;;
1987;SDS011;12775;46.994;15.498;2023-08-31T04:35:18;3.22;;;2.92;;
1987;SDS011;12775;46.994;15.498;2023-08-31T04:37:44;6.44;;;3.24;;
1987;SDS011;12775;46.994;15.498;2023-08-31T04:40:11;3.72;;;3.42;;
1987;SDS011;12775;46.994;15.498;2023-08-31T04:42:37;6.76;;;3.48;;
1987;SDS011;12775;46.994;15.498;2023-08-31T04:45:04;3.82;;;3.32;;
1987;SDS011;12775;46.994;15.498;2023-08-31T04:47:31;5.56;;;3.80;;
1987;SDS011;12775;46.994;15.498;2023-08-31T04:49:57;4.04;;;3.64;;
1987;SDS011;12775;46.994;15.498;2023-08-31T04:52:24;3.14;;;2.94;;
1987;SDS011;12775;46.994;15.498;2023-08-31T04:54:51;10.94;;;3.82;;
1987;SDS011;12775;46.994;15.498;2023-08-31T04:57:17;6.12;;;4.50;;
1987;SDS011;12775;46.994;15.498;2023-08-31T04:59:44;5.04;;;4.08;;
1987;SDS011;12775;46.994;15.498;2023-08-31T05:02:10;4.96;;;4.10;;
1987;SDS011;12775;46.994;15.498;2023-08-31T05:04:37;4.64;;;4.06;;
1987;SDS011;12775;46.994;15.498;2023-08-31T05:07:04;4.74;;;3.74;;
1987;SDS011;12775;46.994;15.498;2023-08-31T05:09:30;4.70;;;4.30;;
1987;SDS011;12775;46.994;15.498;2023-08-31T05:11:57;4.56;;;4.16;;
1987;SDS011;12775;46.994;15.498;2023-08-31T05:14:23;4.82;;;4.14;;
1987;SDS011;12775;46.994;15.498;2023-08-31T05:16:50;4.84;;;4.28;;
1987;SDS011;12775;46.994;15.498;2023-08-31T05:19:17;7.36;;;4.64;;
1987;SDS011;12775;46.994;15.498;2023-08-31T05:21:43;3.70;;;3.40;;
1987;SDS011;12775;46.994;15.498;2023-08-31T05:24:10;5.06;;;4.22;;
1987;SDS011;12775;46.994;15.498;2023-08-31T05:26:36;5.36;;;4.30;;
1987;SDS011;12775;46.994;15.498;2023-08-31T05:29:03;5.22;;;4.24;;
1987;SDS011;12775;46.994;15.498;2023-08-31T05:31:30;5.82;;;4.96;;
1987;SDS011;12775;46.994;15.498;2023-08-31T05:33:56;5.06;;;4.66;;
1987;SDS011;12775;46.994;15.498;2023-08-31T05:36:23;4.38;;;3.98;;
1987;SDS011;12775;46.994;15.498;2023-08-31T05:38:50;5.94;;;4.66;;
1987;SDS011;12775;46.994;15.498;2023-08-31T05:41:17;4.06;;;3.68;;
1987;SDS011;12775;46.994;15.498;2023-08-31T05:43:43;6.82;;;3.78;;
1987;SDS011;12775;46.994;15.498;2023-08-31T05:46:10;10.72;;;4.30;;
1987;SDS011;12775;46.994;15.498;2023-08-31T05:48:37;4.68;;;4.24;;
1987;SDS011;12775;46.994;15.498;2023-08-31T05:51:03;4.32;;;4.02;;
1987;SDS011;12775;46.994;15.498;2023-08-31T05:53:31;4.92;;;4.52;;
1987;SDS011;12775;46.994;15.498;2023-08-31T05:55:58;6.14;;;4.22;;
1987;SDS011;12775;46.994;15.498;2023-08-31T05:58:31;4.98;;;4.64;;
1987;SDS011;12775;46.994;15.498;2023-08-31T06:00:57;5.80;;;5.24;;
1987;SDS011;12775;46.994;15.498;2023-08-31T06:03:24;6.72;;;5.30;;
1987;SDS011;12775;46.994;15.498;2023-08-31T06:05:50;5.56;;;5.16;;
1987;SDS011;12775;46.994;15.498;2023-08-31T06:08:17;6.34;;;5.62;;
1987;SDS011;12775;46.994;15.498;2023-08-31T06:10:43;9.96;;;6.28;;
1987;SDS011;12775;46.994;15.498;2023-08-31T06:13:10;6.46;;;4.98;;
1987;SDS011;12775;46.994;15.498;2023-08-31T06:15:36;6.10;;;5.50;;
1987;SDS011;12775;46.994;15.498;2023-08-31T06:18:03;6.22;;;5.70;;
1987;SDS011;12775;46.994;15.498;2023-08-31T06:20:30;5.52;;;5.02;;
1987;SDS011;12775;46.994;15.498;2023-08-31T06:22:57;7.40;;;6.60;;
1987;SDS011;12775;46.994;15.498;2023-08-31T06:25:23;5.82;;;5.42;;
1987;SDS011;12775;46.994;15.498;2023-08-31T06:27:50;6.44;;;5.94;;
1987;SDS011;12775;46.994;15.498;2023-08-31T06:30:17;7.12;;;6.46;;
1987;SDS011;12775;46.994;15.498;2023-08-31T06:32:43;5.58;;;5.18;;
1987;SDS011;12775;46.994;15.498;2023-08-31T06:35:10;8.02;;;5.48;;
1987;SDS011;12775;46.994;15.498;2023-08-31T06:37:36;5.58;;;5.18;;
1987;SDS011;12775;46.994;15.498;2023-08-31T06:40:03;5.40;;;4.60;;
1987;SDS011;12775;46.994;15.498;2023-08-31T06:42:30;8.64;;;5.04;;
1987;SDS011;12775;46.994;15.498;2023-08-31T06:44:57;4.62;;;4.22;;
1987;SDS011;12775;46.994;15.498;2023-08-31T06:47:24;4.80;;;4.40;;
1987;SDS011;12775;46.994;15.498;2023-08-31T06:49:51;4.32;;;3.68;;
1987;SDS011;12775;46.994;15.498;2023-08-31T06:52:17;4.12;;;3.82;;
1987;SDS011;12775;46.994;15.498;2023-08-31T06:54:44;6.72;;;3.98;;
1987;SDS011;12775;46.994;15.498;2023-08-31T06:57:10;5.56;;;4.14;;
1987;SDS011;12775;46.994;15.498;2023-08-31T06:59:37;4.08;;;3.56;;
1987;SDS011;12775;46.994;15.498;2023-08-31T07:02:04;4.30;;;3.42;;
1987;SDS011;12775;46.994;15.498;2023-08-31T07:04:30;4.96;;;4.30;;
1987;SDS011;12775;46.994;15.498;2023-08-31T07:06:57;4.82;;;4.42;;
1987;SDS011;12775;46.994;15.498;2023-08-31T07:09:23;4.12;;;3.76;;
1987;SDS011;12775;46.994;15.498;2023-08-31T07:11:50;9.92;;;4.40;;
1987;SDS011;12775;46.994;15.498;2023-08-31T07:14:17;3.34;;;3.14;;
1987;SDS011;12775;46.994;15.498;2023-08-31T07:16:45;4.82;;;3.58;;
1987;SDS011;12775;46.994;15.498;2023-08-31T07:19:12;5.04;;;4.62;;
1987;SDS011;12775;46.994;15.498;2023-08-31T07:21:39;5.28;;;4.78;;
1987;SDS011;12775;46.994;15.498;2023-08-31T07:24:08;3.90;;;3.60;;
1987;SDS011;12775;46.994;15.498;2023-08-31T07:26:35;8.26;;;3.92;;
1987;SDS011;12775;46.994;15.498;2023-08-31T07:29:02;4.84;;;4.40;;
1987;SDS011;12775;46.994;15.498;2023-08-31T07:31:30;3.92;;;3.62;;
1987;SDS011;12775;46.994;15.498;2023-08-31T07:33:56;3.12;;;2.92;;
1987;SDS011;12775;46.994;15.498;2023-08-31T07:36:23;7.16;;;4.22;;
1987;SDS011;12775;46.994;15.498;2023-08-31T07:38:50;4.74;;;2.88;;
1987;SDS011;12775;46.994;15.498;2023-08-31T07:41:16;3.90;;;3.20;;
1987;SDS011;12775;46.994;15.498;2023-08-31T07:43:44;3.20;;;2.86;;
1987;SDS011;12775;46.994;15.498;2023-08-31T07:46:10;3.02;;;2.76;;
1987;SDS011;12775;46.994;15.498;2023-08-31T07:48:37;3.44;;;2.94;;
1987;SDS011;12775;46.994;15.498;2023-08-31T07:51:03;4.90;;;3.18;;
1987;SDS011;12775;46.994;15.498;2023-08-31T07:53:30;9.42;;;2.98;;
1987;SDS011;12775;46.994;15.498;2023-08-31T07:55:56;3.26;;;2.94;;
1987;SDS011;12775;46.994;15.498;2023-08-31T07:58:23;4.34;;;2.56;;
1987;SDS011;12775;46.994;15.498;2023-08-31T08:00:52;4.58;;;2.32;;
1987;SDS011;12775;46.994;15.498;2023-08-31T08:03:19;3.08;;;2.84;;
1987;SDS011;12775;46.994;15.498;2023-08-31T08:05:46;3.18;;;1.86;;
1987;SDS011;12775;46.994;15.498;2023-08-31T08:08:12;2.88;;;2.36;;
1987;SDS011;12775;46.994;15.498;2023-08-31T08:10:39;1.88;;;1.78;;
1987;SDS011;12775;46.994;15.498;2023-08-31T08:13:05;3.00;;;2.40;;
1987;SDS011;12775;46.994;15.498;2023-08-31T08:15:32;2.50;;;2.30;;
1987;SDS011;12775;46.994;15.498;2023-08-31T08:17:58;3.34;;;2.46;;
1987;SDS011;12775;46.994;15.498;2023-08-31T08:20:26;2.98;;;2.78;;
1987;SDS011;12775;46.994;15.498;2023-08-31T08:22:52;2.90;;;2.66;;
1987;SDS011;12775;46.994;15.498;2023-08-31T08:25:19;2.50;;;2.16;;
1987;SDS011;12775;46.994;15.498;2023-08-31T08:27:45;2.76;;;2.56;;
1987;SDS011;12775;46.994;15.498;2023-08-31T08:30:11;3.90;;;2.80;;
1987;SDS011;12775;46.994;15.498;2023-08-31T08:32:38;2.96;;;2.76;;
1987;SDS011;12775;46.994;15.498;2023-08-31T08:35:05;3.16;;;2.12;;
1987;SDS011;12775;46.994;15.498;2023-08-31T08:37:32;3.36;;;2.36;;
1987;SDS011;12775;46.994;15.498;2023-08-31T08:40:00;1.96;;;1.84;;
1987;SDS011;12775;46.994;15.498;2023-08-31T08:42:26;2.62;;;1.88;;
1987;SDS011;12775;46.994;15.498;2023-08-31T08:44:53;2.20;;;2.00;;
1987;SDS011;12775;46.994;15.498;2023-08-31T08:47:19;2.14;;;1.94;;
1987;SDS011;12775;46.994;15.498;2023-08-31T08:49:47;1.90;;;1.80;;
1987;SDS011;12775;46.994;15.498;2023-08-31T08:52:13;1.64;;;1.50;;
1987;SDS011;12775;46.994;15.498;2023-08-31T08:54:39;2.54;;;1.64;;
1987;SDS011;12775;46.994;15.498;2023-08-31T08:57:06;3.12;;;1.80;;
1987;SDS011;12775;46.994;15.498;2023-08-31T08:59:32;2.78;;;1.78;;
1987;SDS011;12775;46.994;15.498;2023-08-31T09:01:59;3.90;;;1.48;;
1987;SDS011;12775;46.994;15.498;2023-08-31T09:04:26;2.18;;;2.02;;
1987;SDS011;12775;46.994;15.498;2023-08-31T09:06:52;1.56;;;1.42;;
1987;SDS011;12775;46.994;15.498;2023-08-31T09:09:19;2.58;;;1.32;;
1987;SDS011;12775;46.994;15.498;2023-08-31T09:11:45;2.14;;;1.92;;
1987;SDS011;12775;46.994;15.498;2023-08-31T09:14:13;2.02;;;1.56;;
1987;SDS011;12775;46.994;15.498;2023-08-31T09:16:45;2.04;;;1.90;;
1987;SDS011;12775;46.994;15.498;2023-08-31T09:21:44;2.02;;;1.88;;
1987;SDS011;12775;46.994;15.498;2023-08-31T09:24:10;1.84;;;1.70;;
1987;SDS011;12775;46.994;15.498;2023-08-31T09:26:38;2.40;;;2.20;;
1987;SDS011;12775;46.994;15.498;2023-08-31T09:29:05;2.42;;;2.08;;
1987;SDS011;12775;46.994;15.498;2023-08-31T09:31:31;3.08;;;2.26;;
1987;SDS011;12775;46.994;15.498;2023-08-31T09:33:57;2.78;;;2.10;;
1987;SDS011;12775;46.994;15.498;2023-08-31T09:36:24;2.06;;;1.86;;
1987;SDS011;12775;46.994;15.498;2023-08-31T09:38:51;3.26;;;1.70;;
1987;SDS011;12775;46.994;15.498;2023-08-31T09:41:18;3.70;;;1.92;;
1987;SDS011;12775;46.994;15.498;2023-08-31T09:43:45;3.24;;;1.70;;
1987;SDS011;12775;46.994;15.498;2023-08-31T09:46:11;2.46;;;1.38;;
1987;SDS011;12775;46.994;15.498;2023-08-31T09:48:38;1.64;;;1.54;;
1987;SDS011;12775;46.994;15.498;2023-08-31T09:51:04;2.04;;;1.44;;
1987;SDS011;12775;46.994;15.498;2023-08-31T09:53:31;1.92;;;1.54;;
1987;SDS011;12775;46.994;15.498;2023-08-31T09:55:58;2.70;;;1.70;;
1987;SDS011;12775;46.994;15.498;2023-08-31T09:58:24;1.64;;;1.42;;
1987;SDS011;12775;46.994;15.498;2023-08-31T10:00:51;1.94;;;1.60;;
1987;SDS011;12775;46.994;15.498;2023-08-31T10:03:17;1.50;;;1.40;;
1987;SDS011;12775;46.994;15.498;2023-08-31T10:05:44;3.12;;;1.70;;
1987;SDS011;12775;46.994;15.498;2023-08-31T10:08:11;3.08;;;1.90;;
1987;SDS011;12775;46.994;15.498;2023-08-31T10:10:38;1.72;;;1.62;;
1987;SDS011;12775;46.994;15.498;2023-08-31T10:13:05;2.50;;;1.74;;
1987;SDS011;12775;46.994;15.498;2023-08-31T10:15:33;2.50;;;1.62;;
1987;SDS011;12775;46.994;15.498;2023-08-31T10:17:59;1.78;;;1.62;;
1987;SDS011;12775;46.994;15.498;2023-08-31T10:20:25;2.62;;;2.08;;
1987;SDS011;12775;46.994;15.498;2023-08-31T10:22:52;1.72;;;1.56;;
1987;SDS011;12775;46.994;15.498;2023-08-31T10:25:19;1.48;;;1.38;;
1987;SDS011;12775;46.994;15.498;2023-08-31T10:27:45;1.56;;;1.44;;
1987;SDS011;12775;46.994;15.498;2023-08-31T10:30:14;11.44;;;1.72;;
1987;SDS011;12775;46.994;15.498;2023-08-31T10:32:41;1.80;;;1.64;;
1987;SDS011;12775;46.994;15.498;2023-08-31T10:35:08;2.10;;;1.90;;
1987;SDS011;12775;46.994;15.498;2023-08-31T10:37:35;1.44;;;1.34;;
1987;SDS011;12775;46.994;15.498;2023-08-31T10:40:06;5.94;;;2.04;;
1987;SDS011;12775;46.994;15.498;2023-08-31T10:42:40;1.54;;;1.44;;
1987;SDS011;12775;46.994;15.498;2023-08-31T10:45:05;1.58;;;1.48;;
1987;SDS011;12775;46.994;15.498;2023-08-31T10:47:37;2.38;;;1.86;;
1987;SDS011;12775;46.994;15.498;2023-08-31T10:50:17;2.56;;;1.58;;
1987;SDS011;12775;46.994;15.498;2023-08-31T10:52:44;1.58;;;1.30;;
1987;SDS011;12775;46.994;15.498;2023-08-31T10:55:12;1.54;;;1.42;;
1987;SDS011;12775;46.994;15.498;2023-08-31T10:57:39;1.42;;;1.24;;
1987;SDS011;12775;46.994;15.498;2023-08-31T11:00:05;1.82;;;1.70;;
1987;SDS011;12775;46.994;15.498;2023-08-31T11:02:34;1.30;;;1.20;;
1987;SDS011;12775;46.994;15.498;2023-08-31T11:05:06;3.82;;;1.54;;
1987;SDS011;12775;46.994;15.498;2023-08-31T11:07:32;2.06;;;1.64;;
1987;SDS011;12775;46.994;15.498;2023-08-31T11:12:32;2.72;;;2.38;;
1987;SDS011;12775;46.994;15.498;2023-08-31T11:15:00;2.70;;;1.82;;
1987;SDS011;12775;46.994;15.498;2023-08-31T11:17:27;2.98;;;1.40;;
1987;SDS011;12775;46.994;15.498;2023-08-31T11:19:53;2.36;;;1.46;;
1987;SDS011;12775;46.994;15.498;2023-08-31T11:22:20;2.58;;;1.52;;
1987;SDS011;12775;46.994;15.498;2023-08-31T11:24:46;1.66;;;1.56;;
1987;SDS011;12775;46.994;15.498;2023-08-31T11:27:13;1.70;;;1.34;;
1987;SDS011;12775;46.994;15.498;2023-08-31T11:29:42;1.72;;;1.44;;
1987;SDS011;12775;46.994;15.498;2023-08-31T11:32:09;1.44;;;1.34;;
1987;SDS011;12775;46.994;15.498;2023-08-31T11:34:39;2.42;;;1.70;;
1987;SDS011;12775;46.994;15.498;2023-08-31T11:37:02;1.30;;;1.20;;
1987;SDS011;12775;46.994;15.498;2023-08-31T11:39:29;2.42;;;1.06;;
1987;SDS011;12775;46.994;15.498;2023-08-31T11:41:55;2.02;;;1.62;;
1987;SDS011;12775;46.994;15.498;2023-08-31T11:44:22;1.76;;;1.66;;
1987;SDS011;12775;46.994;15.498;2023-08-31T11:46:48;1.70;;;1.60;;
1987;SDS011;12775;46.994;15.498;2023-08-31T11:49:17;1.38;;;1.28;;
1987;SDS011;12775;46.994;15.498;2023-08-31T11:51:43;2.34;;;1.60;;
1987;SDS011;12775;46.994;15.498;2023-08-31T11:54:10;2.46;;;1.72;;
1987;SDS011;12775;46.994;15.498;2023-08-31T11:56:40;1.36;;;1.26;;
1987;SDS011;12775;46.994;15.498;2023-08-31T11:59:10;2.06;;;1.44;;
1987;SDS011;12775;46.994;15.498;2023-08-31T12:01:38;2.30;;;1.26;;
1987;SDS011;12775;46.994;15.498;2023-08-31T12:04:10;1.28;;;1.18;;
1987;SDS011;12775;46.994;15.498;2023-08-31T12:06:36;1.84;;;1.50;;
1987;SDS011;12775;46.994;15.498;2023-08-31T12:09:04;1.46;;;1.36;;
1987;SDS011;12775;46.994;15.498;2023-08-31T12:11:29;1.18;;;1.04;;
1987;SDS011;12775;46.994;15.498;2023-08-31T12:13:59;1.50;;;1.30;;
1987;SDS011;12775;46.994;15.498;2023-08-31T12:16:22;1.52;;;1.42;;
1987;SDS011;12775;46.994;15.498;2023-08-31T12:18:49;1.44;;;1.34;;
1987;SDS011;12775;46.994;15.498;2023-08-31T12:21:18;1.40;;;1.30;;
1987;SDS011;12775;46.994;15.498;2023-08-31T12:23:42;2.52;;;2.04;;
1987;SDS011;12775;46.994;15.498;2023-08-31T12:26:09;1.70;;;1.60;;
1987;SDS011;12775;46.994;15.498;2023-08-31T12:28:35;2.06;;;1.26;;
1987;SDS011;12775;46.994;15.498;2023-08-31T12:31:02;3.00;;;2.30;;
1987;SDS011;12775;46.994;15.498;2023-08-31T12:33:29;2.28;;;1.68;;
1987;SDS011;12775;46.994;15.498;2023-08-31T12:35:55;2.62;;;1.50;;
1987;SDS011;12775;46.994;15.498;2023-08-31T12:38:22;1.52;;;1.42;;
1987;SDS011;12775;46.994;15.498;2023-08-31T12:40:48;2.36;;;1.90;;
1987;SDS011;12775;46.994;15.498;2023-08-31T12:43:15;3.02;;;1.62;;
1987;SDS011;12775;46.994;15.498;2023-08-31T12:45:41;1.60;;;1.50;;
1987;SDS011;12775;46.994;15.498;2023-08-31T12:48:08;2.30;;;1.48;;
1987;SDS011;12775;46.994;15.498;2023-08-31T12:50:35;1.92;;;1.58;;
1987;SDS011;12775;46.994;15.498;2023-08-31T12:53:01;1.78;;;1.68;;
1987;SDS011;12775;46.994;15.498;2023-08-31T12:55:28;1.78;;;1.68;;
1987;SDS011;12775;46.994;15.498;2023-08-31T12:57:55;2.02;;;1.60;;
1987;SDS011;12775;46.994;15.498;2023-08-31T13:00:22;2.46;;;1.50;;
1987;SDS011;12775;46.994;15.498;2023-08-31T13:02:50;1.66;;;1.36;;
1987;SDS011;12775;46.994;15.498;2023-08-31T13:05:16;2.22;;;2.02;;
1987;SDS011;12775;46.994;15.498;2023-08-31T13:07:43;1.40;;;1.24;;
1987;SDS011;12775;46.994;15.498;2023-08-31T13:10:10;1.80;;;1.70;;
1987;SDS011;12775;46.994;15.498;2023-08-31T13:12:37;1.64;;;1.48;;
1987;SDS011;12775;46.994;15.498;2023-08-31T13:15:03;1.76;;;1.66;;
1987;SDS011;12775;46.994;15.498;2023-08-31T13:17:30;1.74;;;1.64;;
1987;SDS011;12775;46.994;15.498;2023-08-31T13:19:57;1.94;;;1.84;;
1987;SDS011;12775;46.994;15.498;2023-08-31T13:22:24;2.00;;;1.90;;
1987;SDS011;12775;46.994;15.498;2023-08-31T13:24:50;2.16;;;1.72;;
1987;SDS011;12775;46.994;15.498;2023-08-31T13:27:17;1.76;;;1.66;;
1987;SDS011;12775;46.994;15.498;2023-08-31T13:29:44;1.88;;;1.78;;
1987;SDS011;12775;46.994;15.498;2023-08-31T13:32:10;1.20;;;1.10;;
1987;SDS011;12775;46.994;15.498;2023-08-31T13:34:37;1.30;;;1.20;;
1987;SDS011;12775;46.994;15.498;2023-08-31T13:37:04;1.64;;;1.50;;
1987;SDS011;12775;46.994;15.498;2023-08-31T13:39:31;1.72;;;1.62;;
1987;SDS011;12775;46.994;15.498;2023-08-31T13:41:57;2.30;;;1.60;;
1987;SDS011;12775;46.994;15.498;2023-08-31T13:44:23;1.44;;;1.34;;
1987;SDS011;12775;46.994;15.498;2023-08-31T13:46:50;2.82;;;2.02;;
1987;SDS011;12775;46.994;15.498;2023-08-31T13:49:17;1.30;;;1.20;;
1987;SDS011;12775;46.994;15.498;2023-08-31T13:51:43;3.60;;;1.90;;
1987;SDS011;12775;46.994;15.498;2023-08-31T13:54:10;1.44;;;1.28;;
1987;SDS011;12775;46.994;15.498;2023-08-31T13:56:36;2.70;;;1.56;;
1987;SDS011;12775;46.994;15.498;2023-08-31T13:59:03;2.14;;;1.28;;
1987;SDS011;12775;46.994;15.498;2023-08-31T14:01:30;1.90;;;1.60;;
1987;SDS011;12775;46.994;15.498;2023-08-31T14:03:56;1.90;;;1.70;;
1987;SDS011;12775;46.994;15.498;2023-08-31T14:06:23;1.62;;;1.40;;
1987;SDS011;12775;46.994;15.498;2023-08-31T14:08:49;1.52;;;1.42;;
1987;SDS011;12775;46.994;15.498;2023-08-31T14:11:16;3.26;;;1.70;;
1987;SDS011;12775;46.994;15.498;2023-08-31T14:13:43;1.90;;;1.70;;
1987;SDS011;12775;46.994;15.498;2023-08-31T14:16:09;2.08;;;1.68;;
1987;SDS011;12775;46.994;15.498;2023-08-31T14:18:36;2.18;;;1.64;;
1987;SDS011;12775;46.994;15.498;2023-08-31T14:21:02;4.20;;;1.66;;
1987;SDS011;12775;46.994;15.498;2023-08-31T14:23:29;1.70;;;1.22;;
1987;SDS011;12775;46.994;15.498;2023-08-31T14:26:01;2.80;;;1.74;;
1987;SDS011;12775;46.994;15.498;2023-08-31T14:28:27;2.24;;;1.74;;
1987;SDS011;12775;46.994;15.498;2023-08-31T14:30:54;1.84;;;1.68;;
1987;SDS011;12775;46.994;15.498;2023-08-31T14:33:20;1.60;;;1.50;;
1987;SDS011;12775;46.994;15.498;2023-08-31T14:35:49;3.64;;;1.94;;
1987;SDS011;12775;46.994;15.498;2023-08-31T14:38:17;1.92;;;1.66;;
1987;SDS011;12775;46.994;15.498;2023-08-31T14:40:41;2.34;;;1.30;;
1987;SDS011;12775;46.994;15.498;2023-08-31T14:43:08;2.14;;;1.92;;
1987;SDS011;12775;46.994;15.498;2023-08-31T14:45:34;2.14;;;1.48;;
1987;SDS011;12775;46.994;15.498;2023-08-31T14:48:01;2.96;;;1.70;;
1987;SDS011;12775;46.994;15.498;2023-08-31T14:50:27;1.86;;;1.68;;